Belavia T154 at Noyabrsk on Aug 28th 2012, overran runway on landing

Last Update: August 28, 2012 / 14:23:28 GMT/Zulu time

Bookmark this article
Incident Facts

Date of incident
Aug 28, 2012

Classification
Incident

Airline
Belavia

Flight number
B2-8411

Destination
Noyabrsk, Russia

Aircraft Registration
EW-85748

Aircraft Type
TUPOLEV Tu-154

ICAO Type Designator
T154

A Belavia Tupolev TU-154M, registration EW-85748 performing flight B2-8411 from Gomel (Belarus) to Noyabrsk (Russia) with 152 passengers and 11 crew, overran the end of the runway by about 15 meters/50 feet while landing in Noyabrsk at about 15:18L (09:18Z), the airplane stopped with the nose gear off, but main landing gear remaining on paved surface.

Ural's Transport Management Office have opened an investigation into the occurrence.

Noyabrsk offers a runway 01/19 of 2510 meters/8230 feet length.

Metars:
USRO 281100Z 03004G07MPS 6000 SKC 16/01 Q1014 NOSIG RMK QFE749/0998 SC070=
USRO 281030Z 05003G06MPS 6000 FEW300 16/01 Q1014 NOSIG RMK QFE749/0998 SC070=
USRO 281000Z 03003G06MPS 6000 SCT300 16/00 Q1014 NOSIG RMK QFE749/0998 SC070=
USRO 280930Z 02005MPS 6000 SCT300 16/01 Q1014 NOSIG RMK QFE749/0998 SC070=
USRO 280900Z 06003G06MPS 6000 SCT300 16/M00 Q1014 NOSIG RMK QFE748/0998 SC070=
USRO 280830Z 06003G07MPS 6000 SCT300 17/01 Q1014 NOSIG RMK QFE748/0998 SC070=
USRO 280800Z 36004G07MPS 6000 SKC 16/01 Q1014 NOSIG RMK QFE748/0998 SC070=
USRO 280730Z 04003G06MPS 6000 SKC 16/01 Q1014 NOSIG RMK QFE749/0998 SC070=
USRO 280700Z 05003G06MPS 6000 SKC 16/03 Q1014 NOSIG RMK QFE749/0998 SC070=
USRO 280630Z 07003G06MPS 6000 SKC 15/02 Q1014 NOSIG RMK QFE749/0998 SC070=
USRO 280600Z 04003G06MPS 6000 SKC 15/01 Q1014 NOSIG RMK QFE749/0998 SC070=
USRO 280530Z 07003G06MPS 6000 SKC 14/02 Q1014 NOSIG RMK QFE749/0998 SC070=
USRO 280500Z 06004G07MPS 6000 SKC 14/03 Q1014 NOSIG RMK QFE749/0998 SC070=
Incident Facts

Date of incident
Aug 28, 2012

Classification
Incident

Airline
Belavia

Flight number
B2-8411

Destination
Noyabrsk, Russia

Aircraft Registration
EW-85748

Aircraft Type
TUPOLEV Tu-154

ICAO Type Designator
T154

This article is published under license from Avherald.com. © of text by Avherald.com.
Article source

You can read 4 more free articles without a subscription.

Subscribe now and continue reading without any limits!

Are you a subscriber?
Login
Subscribe

Read unlimited articles and receive our daily update briefing. Gain better insights into what is happening in commercial aviation safety.

Free newsletter

Want to know more and stay ahead? Get our free weekly newsletter and join 4942 existing subscribers.

By subscribing, you accept our terms and conditions and confirm that you've read our privacy policy.

Send tip

Support AeroInside by sending a small tip amount.

Related articles

Newest articles

Subscribe today

Are you researching aviation incidents? Get access to AeroInside Insights, unlimited read access and receive the daily newsletter.

Pick your plan and subscribe

Partner

Blockaviation logo

A new way to document and demonstrate airworthiness compliance and aircraft value. Find out more.

Virtual Speech logo

ELITE Simulation Solutions is a leading global provider of Flight Simulation Training Devices, IFR training software as well as flight controls and related services. Find out more.

Get updates

Never miss an article from AeroInside. Subscribe to our free weekly newsletter and join 4942 existing subscribers.

By subscribing, you accept our terms and conditions and that you've read our privacy policy.

AeroInside Blog
Popular aircraft
Airbus A320
Boeing 737-800
Boeing 737-800 MAX
Popular airlines
American Airlines
United
Delta
Air Canada
Lufthansa
British Airways